createdAt,value
2023-05-04T00:01:37.557Z,9.55
2023-05-04T00:04:10.518Z,7.95
2023-05-04T00:06:44.086Z,8.05
2023-05-04T00:09:16.716Z,9.93
2023-05-04T00:11:49.808Z,7.68
2023-05-04T00:14:22.454Z,9.25
2023-05-04T00:16:55.526Z,7.82
2023-05-04T00:19:28.173Z,8.18
2023-05-04T00:22:01.427Z,8.15
2023-05-04T00:24:34.420Z,7.90
2023-05-04T00:27:07.558Z,7.28
2023-05-04T00:29:40.945Z,6.82
2023-05-04T00:32:13.974Z,7.70
2023-05-04T00:34:47.307Z,8.40
2023-05-04T00:37:20.326Z,8.75
2023-05-04T00:39:53.145Z,8.18
2023-05-04T00:42:26.871Z,7.78
2023-05-04T00:45:00.074Z,9.90
2023-05-04T00:47:33.176Z,8.02
2023-05-04T00:50:06.532Z,7.00
2023-05-04T00:52:40.668Z,7.57
2023-05-04T00:55:14.856Z,7.53
2023-05-04T00:57:49.592Z,6.93
2023-05-04T01:00:22.895Z,6.35
2023-05-04T01:02:56.678Z,6.72
2023-05-04T01:05:32.011Z,6.82
2023-05-04T01:08:08.702Z,6.93
2023-05-04T01:10:51.479Z,6.95
2023-05-04T01:13:25.138Z,7.00
2023-05-04T01:15:58.089Z,7.50
2023-05-04T01:18:31.304Z,7.18
2023-05-04T01:21:04.531Z,6.60
2023-05-04T01:23:37.586Z,7.35
2023-05-04T01:26:27.980Z,7.07
2023-05-04T01:29:27.356Z,7.88
2023-05-04T01:32:00.389Z,6.72
2023-05-04T01:34:33.594Z,5.85
2023-05-04T01:37:06.871Z,6.97
2023-05-04T01:39:39.807Z,6.50
2023-05-04T01:42:12.503Z,6.90
2023-05-04T01:44:45.591Z,6.85
2023-05-04T01:47:19.045Z,6.50
2023-05-04T01:49:52.058Z,6.68
2023-05-04T01:52:24.784Z,6.55
2023-05-04T01:54:57.795Z,6.60
2023-05-04T01:57:31.241Z,5.85
2023-05-04T02:00:05.066Z,7.82
2023-05-04T02:02:48.132Z,6.38
2023-05-04T02:05:24.769Z,8.00
2023-05-04T02:07:57.429Z,5.53
2023-05-04T02:10:30.683Z,6.20
2023-05-04T02:13:03.400Z,6.03
2023-05-04T02:15:36.671Z,6.05
2023-05-04T02:18:09.396Z,5.68
2023-05-04T02:20:42.535Z,6.60
2023-05-04T02:23:15.142Z,5.72
2023-05-04T02:25:48.249Z,5.90
2023-05-04T02:28:23.469Z,7.70
2023-05-04T02:30:56.572Z,5.53
2023-05-04T02:33:29.304Z,5.35
2023-05-04T02:36:02.353Z,6.43
2023-05-04T02:38:35.114Z,7.10
2023-05-04T02:41:09.604Z,9.13
2023-05-04T02:43:43.041Z,12.05
2023-05-04T02:46:23.743Z,9.85
2023-05-04T02:48:56.633Z,8.93
2023-05-04T02:51:29.697Z,9.68
2023-05-04T02:54:02.380Z,5.70
2023-05-04T02:56:36.130Z,6.53
2023-05-04T02:59:09.263Z,6.72
2023-05-04T03:01:43.973Z,6.05
2023-05-04T03:04:21.372Z,7.28
2023-05-04T03:06:55.637Z,8.25
2023-05-04T03:09:28.358Z,7.57
2023-05-04T03:12:02.205Z,8.18
2023-05-04T03:14:35.020Z,6.63
2023-05-04T03:17:08.630Z,9.05
2023-05-04T03:19:42.516Z,6.13
2023-05-04T03:22:23.508Z,7.68
2023-05-04T03:24:56.423Z,6.50
2023-05-04T03:27:29.573Z,6.10
2023-05-04T03:30:03.201Z,5.22
2023-05-04T03:32:37.046Z,7.20
2023-05-04T03:37:57.015Z,6.90
2023-05-04T03:40:29.777Z,7.10
2023-05-04T03:43:03.852Z,6.22
2023-05-04T03:45:40.608Z,5.88
2023-05-04T03:48:15.335Z,7.07
2023-05-04T03:50:48.138Z,5.93
2023-05-04T03:53:21.468Z,6.47
2023-05-04T03:55:54.330Z,5.93
2023-05-04T03:58:28.372Z,7.13
2023-05-04T04:01:07.585Z,5.97
2023-05-04T04:03:44.407Z,6.07
2023-05-04T04:06:17.267Z,6.28
2023-05-04T04:08:50.304Z,6.45
2023-05-04T04:11:23.174Z,6.30
2023-05-04T04:13:56.312Z,6.25
2023-05-04T04:16:28.955Z,4.78
2023-05-04T04:19:02.487Z,4.80
2023-05-04T04:21:35.849Z,5.47
2023-05-04T04:24:08.801Z,6.25
2023-05-04T04:26:41.415Z,5.50
2023-05-04T04:29:14.417Z,5.55
2023-05-04T04:31:47.713Z,6.78
2023-05-04T04:34:21.224Z,7.20
2023-05-04T04:36:53.826Z,11.20
2023-05-04T04:39:26.936Z,14.85
2023-05-04T04:41:59.642Z,16.92
2023-05-04T04:44:32.683Z,16.67
2023-05-04T04:47:05.646Z,17.77
2023-05-04T04:49:38.686Z,20.25
2023-05-04T04:52:12.299Z,18.35
2023-05-04T04:54:45.825Z,15.52
2023-05-04T04:57:18.555Z,9.52
2023-05-04T04:59:51.584Z,8.50
2023-05-04T05:02:24.326Z,5.70
2023-05-04T05:04:57.571Z,5.97
2023-05-04T05:07:31.732Z,5.35
2023-05-04T05:10:05.203Z,5.10
2023-05-04T05:12:38.096Z,4.53
2023-05-04T05:15:11.232Z,5.07
2023-05-04T05:17:43.926Z,4.68
2023-05-04T05:20:17.021Z,5.95
2023-05-04T05:22:49.699Z,5.22
2023-05-04T05:25:22.676Z,4.72
2023-05-04T05:27:55.277Z,4.70
2023-05-04T05:30:28.975Z,5.15
2023-05-04T05:33:01.628Z,4.65
2023-05-04T05:35:34.762Z,5.50
2023-05-04T05:38:07.397Z,6.35
2023-05-04T05:40:40.461Z,6.82
2023-05-04T05:43:13.041Z,5.65
2023-05-04T05:45:46.300Z,6.28
2023-05-04T05:48:18.994Z,4.65
2023-05-04T05:50:52.357Z,6.43
2023-05-04T05:53:25.007Z,5.78
2023-05-04T05:55:58.011Z,4.15
2023-05-04T05:58:30.578Z,4.20
2023-05-04T06:01:04.081Z,4.45
2023-05-04T06:03:37.314Z,4.97
2023-05-04T06:06:10.632Z,4.70
2023-05-04T06:08:43.250Z,4.20
2023-05-04T06:11:16.239Z,4.53
2023-05-04T06:13:48.783Z,3.85
2023-05-04T06:16:21.825Z,5.40
2023-05-04T06:18:54.491Z,4.20
2023-05-04T06:21:27.596Z,4.30
2023-05-04T06:24:00.198Z,3.92
2023-05-04T06:26:33.237Z,4.43
2023-05-04T06:29:06.111Z,3.97
2023-05-04T06:31:39.465Z,4.85
2023-05-04T06:34:12.239Z,4.97
2023-05-04T06:36:45.725Z,3.83
2023-05-04T06:39:18.482Z,4.45
2023-05-04T06:41:53.960Z,3.75
2023-05-04T06:44:26.624Z,4.50
2023-05-04T06:46:59.661Z,3.25
2023-05-04T06:49:32.539Z,4.60
2023-05-04T06:52:05.755Z,4.57
2023-05-04T06:54:40.443Z,3.78
2023-05-04T06:57:13.426Z,3.75
2023-05-04T06:59:46.452Z,4.07
2023-05-04T07:02:19.780Z,4.32
2023-05-04T07:04:53.339Z,3.88
2023-05-04T07:07:26.549Z,4.65
2023-05-04T07:09:59.185Z,4.20
2023-05-04T07:12:32.290Z,4.18
2023-05-04T07:15:06.624Z,4.25
2023-05-04T07:17:39.762Z,4.30
2023-05-04T07:20:12.880Z,4.47
2023-05-04T07:22:46.103Z,4.90
2023-05-04T07:25:18.755Z,3.85
2023-05-04T07:27:51.942Z,4.38
2023-05-04T07:30:25.013Z,3.13
2023-05-04T07:32:58.063Z,3.53
2023-05-04T07:35:30.674Z,2.92
2023-05-04T07:38:03.665Z,3.47
2023-05-04T07:40:36.306Z,3.28
2023-05-04T07:43:09.396Z,3.35
2023-05-04T07:45:42.242Z,2.97
2023-05-04T07:48:16.641Z,3.53
2023-05-04T07:50:50.909Z,2.97
2023-05-04T07:53:25.827Z,2.47
2023-05-04T07:56:01.234Z,2.90
2023-05-04T07:58:34.177Z,2.88
2023-05-04T08:01:06.890Z,1.80
2023-05-04T08:03:40.047Z,2.58
2023-05-04T08:06:13.457Z,2.25
2023-05-04T08:08:46.976Z,1.90
2023-05-04T08:11:20.982Z,1.63
2023-05-04T08:13:54.250Z,1.85
2023-05-04T08:16:28.301Z,1.85
2023-05-04T08:19:01.799Z,2.90
2023-05-04T08:21:34.621Z,1.95
2023-05-04T08:24:07.711Z,1.50
2023-05-04T08:26:42.446Z,2.25
2023-05-04T08:29:16.838Z,1.90
2023-05-04T08:31:54.712Z,1.50
2023-05-04T08:34:27.733Z,2.20
2023-05-04T08:37:00.483Z,2.35
2023-05-04T08:39:33.562Z,2.53
2023-05-04T08:42:06.311Z,1.77
2023-05-04T08:44:39.251Z,1.90
2023-05-04T08:47:11.861Z,1.10
2023-05-04T08:49:44.900Z,1.83
2023-05-04T08:52:18.125Z,1.92
2023-05-04T08:54:53.607Z,2.20
2023-05-04T08:57:26.579Z,1.77
2023-05-04T09:00:00.296Z,1.30
2023-05-04T09:02:33.805Z,1.75
2023-05-04T09:05:08.494Z,2.10
2023-05-04T09:07:41.183Z,1.48
2023-05-04T09:10:14.440Z,1.80
2023-05-04T09:12:48.025Z,1.67
2023-05-04T09:15:21.566Z,1.90
2023-05-04T09:18:00.102Z,2.28
2023-05-04T09:20:43.658Z,1.70
2023-05-04T09:23:18.348Z,1.52
2023-05-04T09:25:51.474Z,1.63
2023-05-04T09:28:37.880Z,1.70
2023-05-04T09:31:12.271Z,1.92
2023-05-04T09:33:45.143Z,2.13
2023-05-04T09:36:19.191Z,2.17
2023-05-04T09:38:51.817Z,1.30
2023-05-04T09:41:32.358Z,1.50
2023-05-04T09:44:05.539Z,1.75
2023-05-04T09:46:38.627Z,1.70
2023-05-04T09:49:11.308Z,2.05
2023-05-04T09:51:44.282Z,1.60
2023-05-04T09:54:17.393Z,1.83
2023-05-04T09:56:52.916Z,1.83
2023-05-04T09:59:28.965Z,1.35
2023-05-04T10:02:07.620Z,1.70
2023-05-04T10:04:47.213Z,1.30
2023-05-04T10:07:21.264Z,2.45
2023-05-04T10:09:54.691Z,2.70
2023-05-04T10:12:28.073Z,1.30
2023-05-04T10:15:01.732Z,1.80
2023-05-04T10:17:46.763Z,1.45
2023-05-04T10:20:28.344Z,1.77
2023-05-04T10:23:18.953Z,2.80
2023-05-04T10:25:54.597Z,1.63
2023-05-04T10:28:46.209Z,1.38
2023-05-04T10:31:19.326Z,4.75
2023-05-04T10:33:52.813Z,1.45
2023-05-04T10:36:36.280Z,1.90
2023-05-04T10:39:22.047Z,1.65
2023-05-04T10:42:01.460Z,1.48
2023-05-04T10:44:35.603Z,1.85
2023-05-04T10:47:08.529Z,1.90
2023-05-04T10:49:41.592Z,1.83
2023-05-04T10:52:18.511Z,1.88
2023-05-04T10:54:58.628Z,2.97
2023-05-04T10:57:31.779Z,2.28
2023-05-04T11:00:04.969Z,1.95
2023-05-04T11:02:37.791Z,1.80
2023-05-04T11:05:17.857Z,1.50
2023-05-04T11:07:53.604Z,1.73
2023-05-04T11:10:27.203Z,1.80
2023-05-04T11:13:05.523Z,1.85
2023-05-04T11:16:05.412Z,1.40
2023-05-04T11:18:38.232Z,1.38
2023-05-04T11:21:11.507Z,1.95
2023-05-04T11:23:44.198Z,2.08
2023-05-04T11:26:17.178Z,2.40
2023-05-04T11:28:50.914Z,1.67
2023-05-04T11:31:29.396Z,1.35
2023-05-04T11:34:02.100Z,1.85
2023-05-04T11:36:41.002Z,2.33
2023-05-04T11:39:14.071Z,1.75
2023-05-04T11:41:47.405Z,1.73
2023-05-04T11:44:25.508Z,1.30
2023-05-04T11:47:00.963Z,1.42
2023-05-04T11:49:34.356Z,1.35
2023-05-04T11:52:11.336Z,1.75
2023-05-04T11:54:57.049Z,1.83
2023-05-04T11:57:32.266Z,1.90
2023-05-04T12:00:05.794Z,1.58
2023-05-04T12:02:39.054Z,1.75
2023-05-04T12:05:17.447Z,1.38
2023-05-04T12:07:50.584Z,1.83
2023-05-04T12:10:29.954Z,1.85
2023-05-04T12:13:03.135Z,1.73
2023-05-04T12:15:42.231Z,2.17
2023-05-04T12:18:22.567Z,1.60
2023-05-04T12:20:55.368Z,2.10
2023-05-04T12:23:31.701Z,1.70
2023-05-04T12:26:09.153Z,1.65
2023-05-04T12:28:42.874Z,2.13
2023-05-04T12:31:15.687Z,2.00
2023-05-04T12:33:50.600Z,1.65
2023-05-04T12:36:23.313Z,1.75
2023-05-04T12:38:56.774Z,1.52
2023-05-04T12:41:30.631Z,1.40
2023-05-04T12:44:03.704Z,1.60
2023-05-04T12:46:36.552Z,1.95
2023-05-04T12:49:12.326Z,1.67
2023-05-04T12:51:49.263Z,1.60
2023-05-04T12:54:22.401Z,2.10
2023-05-04T12:56:55.201Z,1.80
2023-05-04T12:59:28.774Z,2.28
2023-05-04T13:02:02.404Z,2.10
2023-05-04T13:04:35.971Z,2.78
2023-05-04T13:07:09.064Z,1.30
2023-05-04T13:09:42.420Z,2.13
2023-05-04T13:12:15.663Z,1.63
2023-05-04T13:14:48.863Z,1.92
2023-05-04T13:17:27.855Z,1.77
2023-05-04T13:20:02.030Z,1.67
2023-05-04T13:22:34.966Z,1.35
2023-05-04T13:25:08.733Z,2.40
2023-05-04T13:27:42.166Z,1.77
2023-05-04T13:30:15.451Z,1.63
2023-05-04T13:32:50.891Z,2.17
2023-05-04T13:35:27.235Z,2.42
2023-05-04T13:37:59.862Z,1.90
2023-05-04T13:40:33.305Z,2.10
2023-05-04T13:43:06.250Z,2.35
2023-05-04T13:45:39.900Z,2.65
2023-05-04T13:48:12.633Z,2.72
2023-05-04T13:50:45.923Z,2.00
2023-05-04T13:53:22.730Z,1.88
2023-05-04T13:55:59.920Z,2.30
2023-05-04T13:58:32.670Z,2.03
2023-05-04T14:01:06.358Z,2.03
2023-05-04T14:03:41.242Z,2.25
2023-05-04T14:06:14.270Z,1.95
2023-05-04T14:08:47.050Z,1.98
2023-05-04T14:11:23.070Z,2.22
2023-05-04T14:13:58.105Z,1.40
2023-05-04T14:16:31.184Z,1.70
2023-05-04T14:19:04.120Z,1.73
2023-05-04T14:21:37.422Z,3.05
2023-05-04T14:24:11.159Z,2.45
2023-05-04T14:26:46.753Z,1.75
2023-05-04T14:29:21.574Z,1.75
2023-05-04T14:31:56.333Z,2.53
2023-05-04T14:34:29.163Z,1.70
2023-05-04T14:37:02.890Z,1.80
2023-05-04T14:39:35.573Z,2.05
2023-05-04T14:42:09.058Z,1.80
2023-05-04T14:44:42.148Z,1.88
2023-05-04T14:47:15.097Z,1.65
2023-05-04T14:49:47.925Z,1.63
2023-05-04T14:52:21.201Z,1.73
2023-05-04T14:54:53.836Z,1.80
2023-05-04T14:57:26.960Z,1.73
2023-05-04T14:59:59.970Z,1.40
2023-05-04T15:02:33.015Z,1.67
2023-05-04T15:05:06.300Z,1.90
2023-05-04T15:07:39.230Z,1.35
2023-05-04T15:10:12.262Z,1.58
2023-05-04T15:12:45.250Z,2.00
2023-05-04T15:15:19.599Z,1.35
2023-05-04T15:17:52.634Z,2.00
2023-05-04T15:20:25.447Z,2.05
2023-05-04T15:23:00.360Z,1.30
2023-05-04T15:25:32.931Z,2.20
2023-05-04T15:28:12.428Z,1.52
2023-05-04T15:30:45.482Z,1.52
2023-05-04T15:33:18.540Z,1.55
2023-05-04T15:35:51.289Z,1.33
2023-05-04T15:38:24.482Z,0.98
2023-05-04T15:40:57.270Z,1.55
2023-05-04T15:43:30.233Z,1.30
2023-05-04T15:46:02.884Z,1.30
2023-05-04T15:48:36.004Z,1.65
2023-05-04T15:51:10.956Z,1.17
2023-05-04T15:53:44.014Z,1.40
2023-05-04T15:56:16.695Z,1.60
2023-05-04T15:58:49.795Z,1.48
2023-05-04T16:01:22.741Z,1.20
2023-05-04T16:03:57.403Z,1.42
2023-05-04T16:06:30.213Z,1.73
2023-05-04T16:09:03.167Z,1.30
2023-05-04T16:11:37.288Z,1.70
2023-05-04T16:14:11.276Z,1.40
2023-05-04T16:16:44.166Z,1.42
2023-05-04T16:19:17.544Z,1.10
2023-05-04T16:21:50.229Z,1.83
2023-05-04T16:24:23.185Z,1.35
2023-05-04T16:26:56.513Z,1.40
2023-05-04T16:29:29.528Z,1.48
2023-05-04T16:32:03.471Z,1.55
2023-05-04T16:34:36.495Z,1.27
2023-05-04T16:37:10.998Z,1.70
2023-05-04T16:39:44.310Z,1.70
2023-05-04T16:42:16.984Z,1.30
2023-05-04T16:44:50.208Z,1.40
2023-05-04T16:47:22.886Z,1.70
2023-05-04T16:49:56.201Z,1.95
2023-05-04T16:52:29.007Z,1.60
2023-05-04T16:55:02.017Z,2.65
2023-05-04T16:57:34.600Z,1.40
2023-05-04T17:00:09.418Z,1.85
2023-05-04T17:02:42.456Z,1.52
2023-05-04T17:05:15.693Z,1.50
2023-05-04T17:07:48.335Z,2.00
2023-05-04T17:10:21.528Z,1.90
2023-05-04T17:12:55.211Z,2.00
2023-05-04T17:15:28.241Z,2.58
2023-05-04T17:18:01.064Z,3.08
2023-05-04T17:20:34.138Z,6.40
2023-05-04T17:23:06.826Z,2.60
2023-05-04T17:25:39.885Z,1.73
2023-05-04T17:28:12.969Z,2.03
2023-05-04T17:30:46.202Z,1.27
2023-05-04T17:33:18.798Z,1.55
2023-05-04T17:35:51.902Z,1.88
2023-05-04T17:38:24.576Z,1.95
2023-05-04T17:40:57.678Z,1.75
2023-05-04T17:43:30.452Z,1.95
2023-05-04T17:46:03.772Z,2.38
2023-05-04T17:48:37.170Z,2.42
2023-05-04T17:51:10.442Z,2.15
2023-05-04T17:53:43.091Z,1.85
2023-05-04T17:56:16.572Z,3.08
2023-05-04T17:58:49.521Z,2.33
2023-05-04T18:01:22.936Z,4.07
2023-05-04T18:03:55.725Z,2.80
2023-05-04T18:06:28.690Z,2.42
2023-05-04T18:09:01.419Z,2.00
2023-05-04T18:11:34.452Z,1.80
2023-05-04T18:14:07.550Z,1.50
2023-05-04T18:16:40.510Z,1.40
2023-05-04T18:19:13.298Z,3.92
2023-05-04T18:21:46.390Z,2.30
2023-05-04T18:24:19.123Z,2.58
2023-05-04T18:26:54.286Z,2.10
2023-05-04T18:29:26.925Z,1.85
2023-05-04T18:32:01.704Z,2.20
2023-05-04T18:34:34.532Z,2.95
2023-05-04T18:37:07.778Z,2.65
2023-05-04T18:39:40.433Z,3.95
2023-05-04T18:42:13.517Z,4.00
2023-05-04T18:44:46.418Z,4.13
2023-05-04T18:47:19.354Z,4.10
2023-05-04T18:49:52.944Z,3.83
2023-05-04T18:52:26.088Z,3.40
2023-05-04T18:54:58.761Z,4.57
2023-05-04T18:57:31.779Z,5.20
2023-05-04T19:00:07.531Z,5.75
2023-05-04T19:02:40.865Z,3.63
2023-05-04T19:05:14.587Z,5.80
2023-05-04T19:07:48.007Z,3.88
2023-05-04T19:10:20.661Z,7.95
2023-05-04T19:12:53.893Z,7.68
2023-05-04T19:15:27.234Z,7.35
2023-05-04T19:18:00.468Z,7.45
2023-05-04T19:20:33.276Z,5.10
2023-05-04T19:23:06.373Z,6.13
2023-05-04T19:25:39.014Z,4.97
2023-05-04T19:28:12.269Z,2.92
2023-05-04T19:30:44.889Z,3.08
2023-05-04T19:33:17.809Z,4.22
2023-05-04T19:35:50.482Z,2.95
2023-05-04T19:38:23.520Z,3.40
2023-05-04T19:40:56.350Z,3.58
2023-05-04T19:43:29.394Z,3.58
2023-05-04T19:46:02.627Z,3.03
2023-05-04T19:48:35.589Z,3.22
2023-05-04T19:51:08.458Z,3.80
2023-05-04T19:53:41.540Z,3.35
2023-05-04T19:56:14.168Z,3.72
2023-05-04T19:58:47.259Z,3.25
2023-05-04T20:01:20.839Z,3.25
2023-05-04T20:03:55.489Z,4.32
2023-05-04T20:06:29.285Z,3.63
2023-05-04T20:09:02.361Z,3.40
2023-05-04T20:11:36.568Z,3.95
2023-05-04T20:14:09.453Z,4.57
2023-05-04T20:16:42.040Z,5.03
2023-05-04T20:19:15.035Z,5.70
2023-05-04T20:21:47.997Z,5.88
2023-05-04T20:24:21.026Z,6.25
2023-05-04T20:26:53.648Z,6.05
2023-05-04T20:29:26.791Z,6.57
2023-05-04T20:32:02.097Z,4.38
2023-05-04T20:34:35.122Z,6.38
2023-05-04T20:37:07.736Z,3.83
2023-05-04T20:39:40.875Z,4.07
2023-05-04T20:42:14.031Z,4.05
2023-05-04T20:44:46.978Z,4.60
2023-05-04T20:47:19.802Z,4.65
2023-05-04T20:49:53.104Z,4.13
2023-05-04T20:52:26.621Z,3.10
2023-05-04T20:54:59.608Z,4.07
2023-05-04T20:57:32.239Z,4.20
2023-05-04T21:00:05.788Z,3.60
2023-05-04T21:02:39.051Z,4.53
2023-05-04T21:05:12.235Z,4.55
2023-05-04T21:07:44.923Z,4.70
2023-05-04T21:10:19.077Z,3.53
2023-05-04T21:12:52.174Z,3.70
2023-05-04T21:15:25.234Z,4.60
2023-05-04T21:17:57.857Z,4.85
2023-05-04T21:20:31.075Z,4.95
2023-05-04T21:23:03.683Z,4.72
2023-05-04T21:25:36.738Z,3.85
2023-05-04T21:28:09.434Z,3.53
2023-05-04T21:30:42.808Z,4.45
2023-05-04T21:33:15.480Z,4.13
2023-05-04T21:35:48.423Z,3.70
2023-05-04T21:38:22.284Z,4.38
2023-05-04T21:40:55.586Z,4.35
2023-05-04T21:43:28.206Z,4.75
2023-05-04T21:46:01.266Z,4.40
2023-05-04T21:48:34.054Z,4.95
2023-05-04T21:51:07.121Z,4.57
2023-05-04T21:53:39.782Z,4.03
2023-05-04T21:56:12.812Z,4.90
2023-05-04T21:58:45.737Z,4.82
2023-05-04T22:01:18.868Z,4.72
2023-05-04T22:03:53.258Z,4.50
2023-05-04T22:06:26.365Z,4.30
2023-05-04T22:08:59.307Z,4.97
2023-05-04T22:11:32.382Z,4.20
2023-05-04T22:14:05.099Z,4.50
2023-05-04T22:16:38.148Z,4.28
2023-05-04T22:19:11.274Z,3.88
2023-05-04T22:21:44.314Z,4.07
2023-05-04T22:24:17.000Z,3.78
2023-05-04T22:26:50.024Z,4.40
2023-05-04T22:29:22.674Z,3.58
2023-05-04T22:31:56.305Z,4.60
2023-05-04T22:34:28.863Z,4.22
2023-05-04T22:37:03.621Z,4.15
2023-05-04T22:39:36.174Z,3.72
2023-05-04T22:42:09.107Z,4.35
2023-05-04T22:44:41.907Z,3.88
2023-05-04T22:47:14.821Z,4.45
2023-05-04T22:49:47.508Z,5.15
2023-05-04T22:52:20.600Z,4.53
2023-05-04T22:54:53.381Z,3.92
2023-05-04T22:57:26.533Z,4.60
2023-05-04T22:59:59.197Z,4.13
2023-05-04T23:02:32.303Z,4.20
2023-05-04T23:05:05.380Z,3.40
2023-05-04T23:07:38.323Z,4.55
2023-05-04T23:10:11.241Z,3.55
2023-05-04T23:12:44.336Z,3.83
2023-05-04T23:15:18.560Z,4.72
2023-05-04T23:17:51.746Z,3.83
2023-05-04T23:20:24.529Z,4.22
2023-05-04T23:22:57.685Z,4.68
2023-05-04T23:25:30.253Z,3.92
2023-05-04T23:28:03.227Z,5.85
2023-05-04T23:30:36.236Z,4.30
2023-05-04T23:33:09.392Z,4.45
2023-05-04T23:35:42.170Z,4.95
2023-05-04T23:38:15.076Z,4.47
2023-05-04T23:40:47.835Z,4.43
2023-05-04T23:43:23.368Z,5.00
2023-05-04T23:46:02.991Z,5.30
2023-05-04T23:48:36.225Z,4.30
2023-05-04T23:51:09.454Z,4.53
2023-05-04T23:53:42.805Z,4.47
2023-05-04T23:56:15.444Z,3.85
2023-05-04T23:58:48.455Z,4.63
